Agreda, Spain
Current Conditions -  °F | °C
As of 5:00 PM on Wednesday 22 Oct 2014 (Local Time) from LELO Reporting Station
Few Clouds Few Clouds  
Wind Chill: 68°   Ceiling: Unl
Heat Index: 68°   Visibility: 6mi
Dew Point: 46°   Wind: 9mph
Humidity: 46%   Direction: 260°W
Pressure: 30.39"   Gusts: NA
Location:  41.86°N, 1.92°W
Report Text: LELO 221500Z 26008KT 230V300 9999 FEW038 20/08 Q1029
Loading
Personal Weather Stations






























Interactive Weather Map
Tropical Storm Tracking
New forecast layout! Learn more

10-Day Weather Forecast

Advertisements
Track Severe Weather on mobile